Time;durP1;ratioP1;P1;durP2;ratioP2;P2;SDS_P1;SDS_P2;PMS_P1;PMS_P2;Temp;Humidity;BMP_temperature;BMP_pressure;BME280_temperature;BME280_humidity;BME280_pressure;Samples;Min_cycle;Max_cycle;Signal;HPM_P1;HPM_P2
2021/09/10 00:01:17;;;;;;;10.73;7.60;;;18.80;69.40;;;;;;5045201;28;20032;-48
2021/09/10 00:04:02;;;;;;;13.25;7.93;;;18.90;69.30;;;;;;5045063;28;20056;-48
2021/09/10 00:06:46;;;;;;;10.73;7.43;;;18.90;69.10;;;;;;5044941;28;20136;-49
2021/09/10 00:09:30;;;;;;;8.93;7.10;;;18.90;68.90;;;;;;5044828;28;20037;-49
2021/09/10 00:12:14;;;;;;;9.30;7.38;;;18.90;68.70;;;;;;5044629;28;20355;-49
2021/09/10 00:14:59;;;;;;;9.48;7.03;;;18.90;68.90;;;;;;5045192;28;20052;-49
2021/09/10 00:17:43;;;;;;;11.23;8.18;;;18.80;68.90;;;;;;5044910;28;20071;-51
2021/09/10 00:20:27;;;;;;;10.85;7.35;;;18.80;69.00;;;;;;5045118;28;20256;-49
2021/09/10 00:23:12;;;;;;;9.88;7.20;;;18.80;68.90;;;;;;5043946;28;20561;-50
2021/09/10 00:25:56;;;;;;;9.85;6.88;;;18.80;68.80;;;;;;5043613;28;20256;-50
2021/09/10 00:28:40;;;;;;;12.77;7.10;;;18.90;68.70;;;;;;5044458;28;20028;-50
2021/09/10 00:31:24;;;;;;;13.15;8.00;;;18.90;68.70;;;;;;5044430;28;20107;-49
2021/09/10 00:34:08;;;;;;;10.70;7.45;;;18.80;68.70;;;;;;5044714;28;20037;-52
2021/09/10 00:36:53;;;;;;;10.77;7.43;;;18.80;68.70;;;;;;5044377;28;20398;-49
2021/09/10 00:39:37;;;;;;;10.57;7.45;;;18.80;69.00;;;;;;5044526;28;20025;-49
2021/09/10 00:42:21;;;;;;;8.73;7.40;;;18.70;69.10;;;;;;5043818;28;20028;-49
2021/09/10 00:45:06;;;;;;;11.18;7.50;;;18.70;69.30;;;;;;5044509;28;20092;-49
2021/09/10 00:47:50;;;;;;;10.18;7.47;;;18.70;69.20;;;;;;5044344;28;20383;-49
2021/09/10 00:50:35;;;;;;;9.98;7.53;;;18.60;69.50;;;;;;5043392;28;20060;-49
2021/09/10 00:53:19;;;;;;;11.50;7.40;;;18.60;69.70;;;;;;5044483;28;20374;-48
2021/09/10 00:56:04;;;;;;;17.75;7.75;;;18.70;69.80;;;;;;5043941;28;20072;-49
2021/09/10 00:58:48;;;;;;;10.90;7.32;;;18.70;70.00;;;;;;5043917;28;20028;-50
2021/09/10 01:01:33;;;;;;;9.48;7.25;;;18.60;70.20;;;;;;5044268;28;20282;-49
2021/09/10 01:04:17;;;;;;;11.65;7.65;;;18.50;70.30;;;;;;5044045;28;20036;-50
2021/09/10 01:07:02;;;;;;;9.95;7.10;;;18.50;70.10;;;;;;5042860;28;20036;-49
2021/09/10 01:09:46;;;;;;;9.15;6.97;;;18.50;70.30;;;;;;5043681;28;20052;-49
2021/09/10 01:12:30;;;;;;;10.35;6.97;;;18.60;70.00;;;;;;5042790;28;20060;-49
2021/09/10 01:15:14;;;;;;;9.50;7.75;;;18.60;70.00;;;;;;5043705;28;20024;-50
2021/09/10 01:17:59;;;;;;;10.57;7.40;;;18.50;70.00;;;;;;5029394;28;20032;-51
2021/09/10 01:20:45;;;;;;;10.82;7.75;;;18.50;70.00;;;;;;5043874;28;20043;-49
2021/09/10 01:23:29;;;;;;;10.88;7.20;;;18.60;69.90;;;;;;5044116;28;20099;-49
2021/09/10 01:26:13;;;;;;;13.55;7.55;;;18.60;69.70;;;;;;5044016;28;20056;-48
2021/09/10 01:29:00;;;;;;;10.60;7.72;;;18.50;69.70;;;;;;5043588;28;20104;-50
2021/09/10 01:31:45;;;;;;;11.38;7.22;;;18.50;69.80;;;;;;5042480;28;20029;-49
2021/09/10 01:34:28;;;;;;;9.98;7.85;;;18.50;69.80;;;;;;5043544;28;20040;-49
2021/09/10 01:37:13;;;;;;;8.68;7.07;;;18.40;69.90;;;;;;5043486;28;20074;-50
2021/09/10 01:39:57;;;;;;;9.43;7.25;;;18.40;70.00;;;;;;5043510;28;20085;-49
2021/09/10 01:42:41;;;;;;;10.15;7.63;;;18.40;69.80;;;;;;5043348;28;20024;-49
2021/09/10 01:45:26;;;;;;;11.05;7.85;;;18.40;69.90;;;;;;5043251;28;20041;-49
2021/09/10 01:48:10;;;;;;;10.18;7.15;;;18.30;69.90;;;;;;5043845;28;20029;-52
2021/09/10 01:50:54;;;;;;;9.93;7.30;;;18.30;70.10;;;;;;5043450;28;20225;-50
2021/09/10 01:53:38;;;;;;;8.98;7.50;;;18.30;70.10;;;;;;5047115;28;20343;-49
2021/09/10 01:56:22;;;;;;;11.20;7.68;;;18.40;69.90;;;;;;5047339;28;20033;-49
2021/09/10 01:59:06;;;;;;;10.60;7.45;;;18.40;69.60;;;;;;5047218;28;20064;-49
2021/09/10 02:01:51;;;;;;;12.40;8.23;;;18.30;69.90;;;;;;5047659;28;20055;-48
2021/09/10 02:04:35;;;;;;;11.05;7.78;;;18.30;70.00;;;;;;5047410;28;20040;-49
2021/09/10 02:07:19;;;;;;;10.60;7.97;;;18.30;70.10;;;;;;5047336;28;20072;-49
2021/09/10 02:10:08;;;;;;;13.63;7.80;;;18.20;70.40;;;;;;5047206;28;20339;-49
2021/09/10 02:12:52;;;;;;;11.55;7.35;;;18.10;70.60;;;;;;5047092;28;20087;-49
2021/09/10 02:15:37;;;;;;;10.10;7.53;;;18.20;70.60;;;;;;5047051;28;20253;-49
2021/09/10 02:18:21;;;;;;;10.75;7.43;;;18.20;70.70;;;;;;5046939;28;20063;-48
2021/09/10 02:21:05;;;;;;;10.32;7.38;;;18.20;70.70;;;;;;5047348;28;20016;-49
2021/09/10 02:23:50;;;;;;;13.10;8.13;;;18.20;70.70;;;;;;5046902;28;20072;-49
2021/09/10 02:26:34;;;;;;;10.60;7.38;;;18.20;70.80;;;;;;5047254;28;20209;-51
2021/09/10 02:29:18;;;;;;;9.15;7.45;;;18.20;70.80;;;;;;5047181;28;20029;-50
2021/09/10 02:32:03;;;;;;;9.45;7.47;;;18.30;70.80;;;;;;5046932;28;20052;-49
2021/09/10 02:34:46;;;;;;;12.48;8.10;;;18.30;71.00;;;;;;5046928;28;20036;-49
2021/09/10 02:37:31;;;;;;;13.13;7.50;;;18.30;71.10;;;;;;5046564;28;20072;-49
2021/09/10 02:40:15;;;;;;;10.02;7.57;;;18.30;71.00;;;;;;5046639;28;20040;-49
2021/09/10 02:42:59;;;;;;;10.80;7.07;;;18.30;70.90;;;;;;5046393;28;20186;-51
2021/09/10 02:45:44;;;;;;;9.98;6.95;;;18.30;70.80;;;;;;5046172;28;20064;-48
2021/09/10 02:48:28;;;;;;;9.80;7.47;;;18.30;70.70;;;;;;5046298;28;20048;-49
2021/09/10 02:51:12;;;;;;;9.05;7.20;;;18.30;70.70;;;;;;5046178;28;20033;-46
2021/09/10 02:53:56;;;;;;;9.05;7.80;;;18.30;70.80;;;;;;5046719;28;20024;-49
2021/09/10 02:56:40;;;;;;;9.85;8.05;;;18.30;70.80;;;;;;5046348;28;20221;-51
2021/09/10 02:59:24;;;;;;;9.85;7.10;;;18.20;71.00;;;;;;5046670;28;20032;-51
2021/09/10 03:02:09;;;;;;;11.45;7.95;;;18.20;71.00;;;;;;5046121;28;20221;-49
2021/09/10 03:04:53;;;;;;;10.75;7.30;;;18.10;71.00;;;;;;5045114;28;20412;-48
2021/09/10 03:07:37;;;;;;;9.00;7.43;;;18.10;70.90;;;;;;5046327;28;20083;-49
2021/09/10 03:10:21;;;;;;;9.73;7.30;;;18.10;70.80;;;;;;5045754;28;20221;-49
2021/09/10 03:13:06;;;;;;;9.75;7.68;;;18.10;70.60;;;;;;5046012;28;20339;-49
2021/09/10 03:15:50;;;;;;;9.35;7.35;;;18.10;70.80;;;;;;5045937;28;20052;-50
2021/09/10 03:18:34;;;;;;;9.63;7.10;;;18.00;70.80;;;;;;5045826;28;20245;-50
2021/09/10 03:21:19;;;;;;;9.60;7.47;;;18.00;70.80;;;;;;5045723;28;20394;-49
2021/09/10 03:24:03;;;;;;;9.32;7.07;;;18.20;70.40;;;;;;5046052;28;20028;-49
2021/09/10 03:26:48;;;;;;;11.50;7.28;;;18.20;70.10;;;;;;5045772;28;20040;-48
2021/09/10 03:29:32;;;;;;;11.25;7.20;;;18.10;70.30;;;;;;5045662;28;20056;-51
2021/09/10 03:32:16;;;;;;;13.20;7.28;;;18.00;70.40;;;;;;5045948;28;20037;-49
2021/09/10 03:35:00;;;;;;;10.93;7.40;;;18.20;70.10;;;;;;5045517;28;20055;-50
2021/09/10 03:37:46;;;;;;;10.63;6.93;;;18.10;70.00;;;;;;5045455;28;20036;-49
2021/09/10 03:40:35;;;;;;;9.50;6.97;;;18.00;70.20;;;;;;5044423;28;20276;-49
2021/09/10 03:43:19;;;;;;;9.77;7.50;;;17.90;70.20;;;;;;5045358;28;20093;-49
2021/09/10 03:46:03;;;;;;;8.00;7.05;;;17.90;70.30;;;;;;5045393;28;20114;-50
2021/09/10 03:48:48;;;;;;;10.85;7.43;;;17.90;70.10;;;;;;5045255;28;20035;-49
2021/09/10 03:51:32;;;;;;;9.23;7.22;;;17.90;70.20;;;;;;5045117;28;21574;-48
2021/09/10 03:54:16;;;;;;;9.82;7.45;;;17.90;70.10;;;;;;5045178;28;20149;-49
2021/09/10 03:57:01;;;;;;;10.98;6.85;;;17.80;70.10;;;;;;5045476;28;20252;-49
2021/09/10 03:59:45;;;;;;;10.50;7.22;;;17.80;70.20;;;;;;5045140;28;20127;-49
2021/09/10 04:02:29;;;;;;;11.02;7.15;;;17.80;70.40;;;;;;5044871;28;20335;-49
2021/09/10 04:05:13;;;;;;;10.65;7.13;;;17.70;70.50;;;;;;5044830;28;20031;-48
2021/09/10 04:07:58;;;;;;;9.38;7.22;;;17.70;70.60;;;;;;5045241;28;20068;-49
2021/09/10 04:10:42;;;;;;;9.23;7.05;;;17.60;70.80;;;;;;5044704;28;20048;-49
2021/09/10 04:13:26;;;;;;;8.52;6.82;;;17.50;70.90;;;;;;5045040;28;20072;-50
2021/09/10 04:16:11;;;;;;;10.60;7.15;;;17.60;70.70;;;;;;5044745;28;20339;-49
2021/09/10 04:18:55;;;;;;;9.90;7.13;;;17.60;70.60;;;;;;5044826;28;20029;-49
2021/09/10 04:21:39;;;;;;;9.95;7.20;;;17.50;70.80;;;;;;5044654;28;20029;-49
2021/09/10 04:24:24;;;;;;;11.02;7.03;;;17.50;70.90;;;;;;5044457;28;20028;-48
2021/09/10 04:27:08;;;;;;;9.27;6.60;;;17.50;70.80;;;;;;5045041;28;20367;-52
2021/09/10 04:29:52;;;;;;;14.68;7.78;;;17.50;70.80;;;;;;5044971;28;20032;-51
2021/09/10 04:32:37;;;;;;;9.98;7.28;;;17.50;70.80;;;;;;5044504;28;20221;-49
2021/09/10 04:35:21;;;;;;;10.07;7.43;;;17.40;70.90;;;;;;5044927;28;20027;-50
2021/09/10 04:38:05;;;;;;;9.07;7.20;;;17.50;70.90;;;;;;5044762;28;20036;-49
2021/09/10 04:40:50;;;;;;;8.18;6.68;;;17.40;71.00;;;;;;5044636;28;20348;-49
2021/09/10 04:43:34;;;;;;;10.75;7.47;;;17.40;71.00;;;;;;5044352;28;20400;-52
2021/09/10 04:46:18;;;;;;;12.48;6.90;;;17.50;70.90;;;;;;5044314;28;20225;-49
2021/09/10 04:49:02;;;;;;;11.13;7.70;;;17.40;70.90;;;;;;5044011;28;20360;-48
2021/09/10 04:51:47;;;;;;;12.15;8.30;;;17.40;71.00;;;;;;5044349;28;20037;-49
2021/09/10 04:54:31;;;;;;;11.10;7.45;;;17.30;71.10;;;;;;5043931;28;20029;-49
2021/09/10 04:57:15;;;;;;;9.00;7.20;;;17.30;71.10;;;;;;5043775;28;20025;-49
2021/09/10 05:00:00;;;;;;;11.15;7.03;;;17.30;71.20;;;;;;5044696;28;20221;-49
2021/09/10 05:02:44;;;;;;;11.30;7.57;;;17.30;71.30;;;;;;5044041;28;20221;-49
2021/09/10 05:05:28;;;;;;;9.93;7.65;;;17.30;71.20;;;;;;5044206;28;20066;-49
2021/09/10 05:08:12;;;;;;;10.00;7.53;;;17.30;71.40;;;;;;5043694;28;20048;-49
2021/09/10 05:10:56;;;;;;;9.77;6.70;;;17.30;71.50;;;;;;5043716;28;20051;-48
2021/09/10 05:13:41;;;;;;;9.88;7.07;;;17.30;71.30;;;;;;5043717;28;20359;-51
2021/09/10 05:16:25;;;;;;;14.57;7.53;;;17.30;71.50;;;;;;5043903;28;20037;-50
2021/09/10 05:19:10;;;;;;;10.75;7.22;;;17.30;71.50;;;;;;5043761;28;20029;-50
2021/09/10 05:21:54;;;;;;;9.48;7.07;;;17.30;71.60;;;;;;5043678;28;20035;-50
2021/09/10 05:24:41;;;;;;;12.02;7.38;;;17.40;71.60;;;;;;5043570;28;20059;-52
2021/09/10 05:27:25;;;;;;;9.80;7.13;;;17.30;71.70;;;;;;5043032;28;20063;-48
2021/09/10 05:30:10;;;;;;;9.70;7.65;;;17.30;71.70;;;;;;5043802;28;20028;-51
2021/09/10 05:32:54;;;;;;;10.15;7.25;;;17.40;71.80;;;;;;5043265;28;20091;-49
2021/09/10 05:35:38;;;;;;;10.65;7.95;;;17.40;71.90;;;;;;5043257;28;20036;-48
2021/09/10 05:38:23;;;;;;;11.90;7.80;;;17.40;72.20;;;;;;5043264;28;20041;-48
2021/09/10 05:41:07;;;;;;;12.88;7.78;;;17.40;72.20;;;;;;5043423;28;20087;-50
2021/09/10 05:43:51;;;;;;;11.18;7.22;;;17.50;72.20;;;;;;5043201;28;20113;-49
2021/09/10 05:46:35;;;;;;;11.98;8.05;;;17.60;72.30;;;;;;5043635;28;20205;-49
2021/09/10 05:49:20;;;;;;;10.95;7.57;;;17.60;72.30;;;;;;5043224;28;20348;-50
2021/09/10 05:52:09;;;;;;;9.30;6.95;;;17.70;71.90;;;;;;5043208;28;20121;-49
2021/09/10 05:54:53;;;;;;;11.93;7.47;;;17.80;72.10;;;;;;5043414;28;20045;-48
2021/09/10 05:57:37;;;;;;;15.73;8.48;;;17.80;72.10;;;;;;5043289;28;20049;-50
2021/09/10 06:00:22;;;;;;;16.02;8.00;;;17.80;72.00;;;;;;5043167;28;20123;-52
2021/09/10 06:03:06;;;;;;;11.40;7.72;;;17.80;72.00;;;;;;5043536;28;20041;-48
2021/09/10 06:05:50;;;;;;;10.35;7.20;;;17.80;72.10;;;;;;5043344;28;20051;-49
2021/09/10 06:08:38;;;;;;;12.57;7.75;;;17.80;72.20;;;;;;5043673;28;20206;-49
2021/09/10 06:11:22;;;;;;;16.30;7.22;;;17.90;72.20;;;;;;5043496;28;20056;-48
2021/09/10 06:14:07;;;;;;;13.63;7.32;;;18.00;71.90;;;;;;5043082;28;20036;-50
2021/09/10 06:16:51;;;;;;;12.07;8.13;;;18.10;71.90;;;;;;5042843;28;20044;-49
2021/09/10 06:19:35;;;;;;;10.48;7.18;;;18.20;72.00;;;;;;5043206;28;20101;-50
2021/09/10 06:22:19;;;;;;;13.93;7.43;;;18.30;71.70;;;;;;5042977;28;20202;-48
2021/09/10 06:25:04;;;;;;;12.63;7.57;;;18.30;71.80;;;;;;5043072;28;20033;-49
2021/09/10 06:27:48;;;;;;;14.18;7.20;;;18.40;71.60;;;;;;5042989;28;20087;-51
2021/09/10 06:30:33;;;;;;;11.18;6.70;;;18.50;71.60;;;;;;5043085;28;20115;-48
2021/09/10 06:33:17;;;;;;;10.27;7.00;;;18.80;71.20;;;;;;5042888;28;20060;-51
2021/09/10 06:36:01;;;;;;;13.05;7.30;;;19.30;70.10;;;;;;5043383;28;20056;-48
2021/09/10 06:38:45;;;;;;;12.30;6.93;;;19.70;68.80;;;;;;5043500;28;20076;-52
2021/09/10 06:41:30;;;;;;;13.57;6.45;;;20.30;67.40;;;;;;5046995;28;20037;-49
2021/09/10 06:44:14;;;;;;;11.05;6.50;;;20.90;65.40;;;;;;5046559;28;20149;-49
2021/09/10 06:46:58;;;;;;;8.77;6.20;;;21.40;63.80;;;;;;5046687;28;20094;-51
2021/09/10 06:49:43;;;;;;;9.70;5.90;;;21.80;62.90;;;;;;5046603;28;20213;-50
2021/09/10 06:52:27;;;;;;;11.45;6.35;;;22.00;62.30;;;;;;5046339;28;20041;-49
2021/09/10 06:55:11;;;;;;;14.43;6.13;;;22.10;62.40;;;;;;5045355;28;20147;-50
2021/09/10 06:57:55;;;;;;;10.35;6.10;;;22.20;62.60;;;;;;5046134;28;20037;-49
2021/09/10 07:00:39;;;;;;;8.75;5.75;;;22.30;62.50;;;;;;5046148;28;20067;-50
2021/09/10 07:03:24;;;;;;;11.88;6.10;;;22.30;62.00;;;;;;5046073;28;20040;-54
2021/09/10 07:06:08;;;;;;;11.50;5.78;;;22.40;61.90;;;;;;5046443;28;20416;-52
2021/09/10 07:08:52;;;;;;;7.20;5.25;;;22.60;61.90;;;;;;5046149;28;20040;-52
2021/09/10 07:11:37;;;;;;;10.57;5.50;;;22.80;61.40;;;;;;5045874;28;20132;-53
2021/09/10 07:14:21;;;;;;;9.02;5.72;;;23.30;60.20;;;;;;5046350;28;20063;-51
2021/09/10 07:17:05;;;;;;;7.88;5.15;;;23.80;58.80;;;;;;5046206;28;20048;-53
2021/09/10 07:19:50;;;;;;;6.38;5.07;;;24.40;56.90;;;;;;5045886;28;20032;-52
2021/09/10 07:22:34;;;;;;;6.82;5.32;;;24.80;55.20;;;;;;5045715;28;20386;-51
2021/09/10 07:25:18;;;;;;;6.97;5.43;;;25.30;53.60;;;;;;5045892;28;20059;-53
2021/09/10 07:28:03;;;;;;;8.70;5.30;;;25.50;52.30;;;;;;5045802;28;20387;-51
2021/09/10 07:30:47;;;;;;;9.00;5.90;;;25.10;53.10;;;;;;5045582;28;20031;-52
2021/09/10 07:33:41;;;;;;;7.20;5.20;;;24.80;53.50;;;;;;5045507;28;20028;-53
2021/09/10 07:36:25;;;;;;;6.90;5.03;;;24.90;53.00;;;;;;5045456;28;20352;-50
2021/09/10 07:39:10;;;;;;;6.90;5.43;;;25.50;51.50;;;;;;5045868;28;20028;-53
2021/09/10 07:41:54;;;;;;;8.77;5.30;;;25.80;51.00;;;;;;5045514;28;20185;-52
2021/09/10 07:44:38;;;;;;;7.90;5.57;;;25.50;51.30;;;;;;5045326;28;20121;-52
2021/09/10 07:47:22;;;;;;;10.25;5.10;;;25.30;51.80;;;;;;5045714;28;20039;-53
2021/09/10 07:50:07;;;;;;;8.27;5.35;;;25.20;51.90;;;;;;5044710;28;20075;-53
2021/09/10 07:52:51;;;;;;;6.65;5.10;;;25.10;51.90;;;;;;5045299;28;20052;-53
2021/09/10 07:55:37;;;;;;;7.30;5.05;;;25.00;53.10;;;;;;5045052;28;20036;-53
2021/09/10 07:58:22;;;;;;;10.55;5.00;;;24.80;53.00;;;;;;5045190;28;20040;-53
2021/09/10 08:01:06;;;;;;;8.82;5.45;;;24.90;53.20;;;;;;5044971;28;20351;-53
2021/09/10 08:03:50;;;;;;;9.07;4.85;;;24.90;53.80;;;;;;5044950;28;20048;-50
2021/09/10 08:06:36;;;;;;;8.00;5.00;;;24.90;53.90;;;;;;5044879;28;20331;-53
2021/09/10 08:09:20;;;;;;;8.15;5.07;;;24.90;54.00;;;;;;5044713;28;20032;-53
2021/09/10 08:12:05;;;;;;;10.30;5.20;;;24.90;54.60;;;;;;5045087;28;20356;-52
2021/09/10 08:14:49;;;;;;;10.75;5.07;;;24.80;54.40;;;;;;5044873;28;20052;-53
2021/09/10 08:17:33;;;;;;;6.70;4.85;;;24.70;54.30;;;;;;5045124;28;20089;-52
2021/09/10 08:20:17;;;;;;;6.60;4.95;;;24.70;54.50;;;;;;5044601;28;20351;-54
2021/09/10 08:23:02;;;;;;;7.00;5.32;;;24.70;53.80;;;;;;5044452;28;20028;-53
2021/09/10 08:25:46;;;;;;;7.68;5.50;;;24.60;53.70;;;;;;5044504;28;20128;-53
2021/09/10 08:28:30;;;;;;;6.95;5.15;;;24.60;54.30;;;;;;5044644;28;20033;-50
2021/09/10 08:31:15;;;;;;;9.10;5.07;;;24.60;55.00;;;;;;5044322;28;20083;-50
2021/09/10 08:34:00;;;;;;;6.97;5.03;;;24.50;54.80;;;;;;5044730;28;20364;-54
2021/09/10 08:36:45;;;;;;;7.15;5.25;;;24.50;55.30;;;;;;5044388;28;20044;-54
2021/09/10 08:39:29;;;;;;;6.78;4.93;;;24.50;55.10;;;;;;5044209;28;20093;-54
2021/09/10 08:42:13;;;;;;;8.25;5.38;;;24.40;55.80;;;;;;5044115;28;20360;-51
2021/09/10 08:44:57;;;;;;;9.55;5.43;;;24.50;55.80;;;;;;5044620;28;20095;-50
2021/09/10 08:47:43;;;;;;;9.10;4.95;;;24.50;55.60;;;;;;5044198;28;20159;-54
2021/09/10 08:50:26;;;;;;;11.68;5.20;;;24.70;54.60;;;;;;5044550;28;20136;-52
2021/09/10 08:53:11;;;;;;;8.82;5.18;;;24.70;54.80;;;;;;5044447;28;20052;-52
2021/09/10 08:55:55;;;;;;;6.90;4.93;;;24.80;55.00;;;;;;5044411;28;20036;-53
2021/09/10 08:58:40;;;;;;;7.20;5.10;;;24.80;53.40;;;;;;5044159;28;20397;-53
2021/09/10 09:01:24;;;;;;;8.45;5.00;;;24.90;53.10;;;;;;5043391;28;20106;-51
2021/09/10 09:04:08;;;;;;;6.88;4.70;;;24.90;53.70;;;;;;5043944;28;20068;-53
2021/09/10 09:06:53;;;;;;;7.15;4.95;;;25.10;54.20;;;;;;5043959;28;20105;-54
2021/09/10 09:09:39;;;;;;;9.00;5.10;;;25.20;53.70;;;;;;5043821;28;20072;-54
2021/09/10 09:12:26;;;;;;;8.35;5.30;;;25.30;52.90;;;;;;5043556;28;20036;-54
2021/09/10 09:15:10;;;;;;;9.75;5.68;;;25.30;53.40;;;;;;5044407;28;20081;-51
2021/09/10 09:17:54;;;;;;;7.28;5.10;;;25.30;54.40;;;;;;5043832;28;20040;-54
2021/09/10 09:20:38;;;;;;;8.30;5.20;;;25.40;54.50;;;;;;5042882;28;20083;-53
2021/09/10 09:23:27;;;;;;;10.50;5.50;;;25.50;54.70;;;;;;5043872;28;20052;-54
2021/09/10 09:26:15;;;;;;;7.32;5.35;;;25.50;53.80;;;;;;5043930;28;20164;-54
2021/09/10 09:29:05;;;;;;;6.95;4.95;;;25.60;53.30;;;;;;5043873;28;20044;-54
2021/09/10 09:32:07;;;;;;;7.03;5.32;;;25.60;53.20;;;;;;5042849;28;20097;-54
2021/09/10 09:34:51;;;;;;;6.40;4.80;;;25.70;52.20;;;;;;5043793;28;20058;-54
2021/09/10 09:37:36;;;;;;;8.25;5.35;;;25.80;52.80;;;;;;5043688;28;20033;-55
2021/09/10 09:40:20;;;;;;;9.27;5.00;;;25.80;52.80;;;;;;5043666;28;20116;-54
2021/09/10 09:43:16;;;;;;;9.70;5.60;;;25.80;53.20;;;;;;5028402;28;20032;-55
2021/09/10 09:46:01;;;;;;;8.23;5.13;;;25.90;52.40;;;;;;5043491;28;20048;-55
2021/09/10 09:48:49;;;;;;;6.53;4.97;;;25.90;51.50;;;;;;5043373;28;20055;-55
2021/09/10 09:51:33;;;;;;;10.65;5.40;;;25.90;51.50;;;;;;5043570;28;20087;-54
2021/09/10 09:54:17;;;;;;;7.28;4.90;;;26.00;52.10;;;;;;5042378;28;20208;-55
2021/09/10 09:57:01;;;;;;;10.18;5.63;;;26.10;52.30;;;;;;5043682;28;20356;-53
2021/09/10 09:59:45;;;;;;;8.45;5.38;;;26.10;51.60;;;;;;5043292;28;20041;-54
2021/09/10 10:02:30;;;;;;;7.80;5.03;;;26.20;51.30;;;;;;5044096;28;20208;-54
2021/09/10 10:05:17;;;;;;;7.72;4.85;;;26.20;51.30;;;;;;5043190;28;20033;-55
2021/09/10 10:08:06;;;;;;;6.80;4.70;;;26.30;51.00;;;;;;5043203;28;20041;-55
2021/09/10 10:10:53;;;;;;;8.43;5.20;;;26.50;52.00;;;;;;5028366;28;20029;-55
2021/09/10 10:13:37;;;;;;;10.80;5.30;;;26.70;51.50;;;;;;5044683;28;20363;-55
2021/09/10 10:16:40;;;;;;;8.00;5.20;;;26.70;49.70;;;;;;5047428;28;20089;-55
2021/09/10 10:19:24;;;;;;;8.05;5.03;;;26.80;49.40;;;;;;5047254;28;20082;-54
2021/09/10 10:22:10;;;;;;;10.05;5.30;;;27.00;49.70;;;;;;5046964;28;20043;-53
2021/09/10 10:24:58;;;;;;;7.88;4.93;;;27.00;48.70;;;;;;5047494;28;20355;-55
2021/09/10 10:27:45;;;;;;;7.32;4.75;;;26.90;49.00;;;;;;5046688;28;20182;-55
2021/09/10 10:30:35;;;;;;;6.43;4.75;;;27.10;50.80;;;;;;5046763;28;20048;-54
2021/09/10 10:33:23;;;;;;;7.00;5.20;;;27.20;49.50;;;;;;5046762;28;20056;-55
2021/09/10 10:36:32;;;;;;;7.78;5.13;;;27.40;49.90;;;;;;5047333;28;20091;-55
2021/09/10 10:39:26;;;;;;;6.57;5.28;;;27.60;50.90;;;;;;5046498;28;20036;-55
2021/09/10 10:42:10;;;;;;;11.35;6.10;;;27.70;50.20;;;;;;5047480;28;20033;-55
2021/09/10 10:44:54;;;;;;;9.02;5.35;;;27.70;49.70;;;;;;5046601;28;20112;-55
2021/09/10 10:47:38;;;;;;;8.80;4.85;;;27.80;49.10;;;;;;5047256;28;20083;-55
2021/09/10 10:50:33;;;;;;;6.60;5.32;;;27.80;49.00;;;;;;5046848;28;20052;-55
2021/09/10 10:53:18;;;;;;;7.35;5.10;;;27.80;48.50;;;;;;5046786;28;20048;-55
2021/09/10 10:56:25;;;;;;;7.30;4.90;;;27.60;49.00;;;;;;5046142;28;20086;-54
2021/09/10 10:59:13;;;;;;;7.05;5.65;;;27.70;48.00;;;;;;5046148;28;20381;-54
2021/09/10 11:02:15;;;;;;;6.97;5.07;;;27.50;48.30;;;;;;5046506;28;20214;-55
2021/09/10 11:05:08;;;;;;;7.43;5.28;;;27.40;48.80;;;;;;5046473;28;20239;-55
2021/09/10 11:07:52;;;;;;;8.85;5.55;;;27.30;47.90;;;;;;5045942;28;20093;-54
2021/09/10 11:10:37;;;;;;;7.55;5.20;;;27.30;48.40;;;;;;5045309;28;20033;-55
2021/09/10 11:13:20;;;;;;;7.30;5.45;;;27.50;48.20;;;;;;5046358;28;20131;-55
2021/09/10 11:16:08;;;;;;;8.48;5.07;;;27.60;48.60;;;;;;5045109;28;20084;-54
2021/09/10 11:18:52;;;;;;;6.93;5.50;;;27.70;48.20;;;;;;5045200;28;20025;-55
2021/09/10 11:21:37;;;;;;;9.45;5.88;;;27.80;47.30;;;;;;5045824;28;20386;-56
2021/09/10 11:24:21;;;;;;;9.18;5.82;;;27.80;46.40;;;;;;5045020;28;20097;-56
2021/09/10 11:27:41;;;;;;;9.25;6.05;;;27.80;46.20;;;;;;5031223;28;20024;-54
2021/09/10 11:30:27;;;;;;;11.87;6.23;;;27.80;47.00;;;;;;5004517;28;20072;-54
2021/09/10 11:33:11;;;;;;;7.25;4.93;;;28.00;47.90;;;;;;5046224;28;20073;-55
2021/09/10 11:35:58;;;;;;;10.10;5.60;;;28.00;47.40;;;;;;5045609;28;20036;-56
2021/09/10 11:38:42;;;;;;;10.35;5.50;;;28.00;46.10;;;;;;5045629;28;20048;-55
2021/09/10 11:41:26;;;;;;;9.48;5.30;;;28.10;45.90;;;;;;5044622;28;20041;-54
2021/09/10 11:44:12;;;;;;;8.20;5.40;;;28.10;46.40;;;;;;5045212;28;20048;-54
2021/09/10 11:46:56;;;;;;;7.38;5.10;;;28.20;45.80;;;;;;5045652;28;20048;-55
2021/09/10 11:49:41;;;;;;;9.43;5.18;;;28.30;46.10;;;;;;5045115;28;20080;-55
2021/09/10 11:52:35;;;;;;;11.35;6.93;;;28.30;46.10;;;;;;5030353;28;20040;-54
2021/09/10 11:55:20;;;;;;;17.15;5.65;;;28.40;45.70;;;;;;5045419;28;20052;-54
2021/09/10 11:58:11;;;;;;;7.65;5.38;;;28.50;47.00;;;;;;5045284;28;20040;-54
2021/09/10 12:01:20;;;;;;;7.63;5.60;;;28.30;44.20;;;;;;5045053;28;20076;-54
2021/09/10 12:04:07;;;;;;;10.10;5.47;;;28.30;44.40;;;;;;5045159;28;20040;-55
2021/09/10 12:06:52;;;;;;;9.68;6.32;;;28.30;44.40;;;;;;5044945;28;20036;-50
2021/09/10 12:09:39;;;;;;;8.52;5.78;;;28.30;44.60;;;;;;5044833;28;20074;-54
2021/09/10 12:12:25;;;;;;;9.82;5.47;;;28.20;44.70;;;;;;5044520;28;20033;-55
2021/09/10 12:15:10;;;;;;;16.25;6.10;;;28.20;44.70;;;;;;5045035;28;20339;-55
2021/09/10 12:17:54;;;;;;;8.68;5.70;;;28.20;44.80;;;;;;5044674;28;20035;-54
2021/09/10 12:20:39;;;;;;;11.25;5.72;;;27.90;44.50;;;;;;5029694;28;20036;-54
2021/09/10 12:23:23;;;;;;;10.85;5.60;;;28.00;45.70;;;;;;5044811;28;20068;-54
2021/09/10 12:26:09;;;;;;;8.95;5.38;;;28.00;46.50;;;;;;5044969;28;20029;-54
2021/09/10 12:28:53;;;;;;;9.38;6.32;;;28.00;47.10;;;;;;5044449;28;20067;-54
2021/09/10 12:31:37;;;;;;;9.00;5.55;;;27.70;45.20;;;;;;5029471;28;20387;-54
2021/09/10 12:34:22;;;;;;;11.90;5.93;;;27.70;46.10;;;;;;5044170;28;20024;-54
2021/09/10 12:37:06;;;;;;;8.30;5.45;;;27.60;45.50;;;;;;5044289;28;20032;-54
2021/09/10 12:39:50;;;;;;;12.93;5.97;;;27.50;47.30;;;;;;5044278;28;20363;-53
2021/09/10 12:42:34;;;;;;;7.55;5.60;;;27.50;47.80;;;;;;5044053;28;20079;-54
2021/09/10 12:45:19;;;;;;;8.80;5.93;;;27.30;48.60;;;;;;5043999;28;20244;-54
2021/09/10 12:48:03;;;;;;;9.85;6.63;;;27.30;48.50;;;;;;5043726;28;20024;-54
2021/09/10 12:50:47;;;;;;;10.38;6.47;;;27.40;50.40;;;;;;5043249;28;20032;-54
2021/09/10 12:53:32;;;;;;;11.68;5.90;;;27.40;49.20;;;;;;5043578;28;20052;-54
2021/09/10 12:56:16;;;;;;;8.93;5.60;;;27.40;49.80;;;;;;5043779;28;20024;-54
2021/09/10 12:59:01;;;;;;;8.55;5.60;;;27.40;50.40;;;;;;5043891;28;20387;-55
2021/09/10 13:01:45;;;;;;;9.13;6.05;;;27.50;50.20;;;;;;5043907;28;20032;-51
2021/09/10 13:04:29;;;;;;;10.27;5.97;;;27.40;48.80;;;;;;5043859;28;20040;-54
2021/09/10 13:07:14;;;;;;;10.50;5.88;;;27.40;48.70;;;;;;5043976;28;20352;-54
2021/09/10 13:09:58;;;;;;;11.23;6.18;;;27.30;48.70;;;;;;5043940;28;20260;-54
2021/09/10 13:12:42;;;;;;;10.25;5.53;;;27.40;48.30;;;;;;5042817;28;20033;-54
2021/09/10 13:15:27;;;;;;;7.75;5.63;;;27.50;48.50;;;;;;5043685;28;20025;-54
2021/09/10 13:18:11;;;;;;;12.57;6.38;;;27.60;49.60;;;;;;5044134;28;20225;-55
2021/09/10 13:20:55;;;;;;;8.88;5.82;;;27.70;48.10;;;;;;5042808;28;20281;-54
2021/09/10 13:23:39;;;;;;;12.35;6.10;;;27.70;49.10;;;;;;5043637;28;20080;-54
2021/09/10 13:26:23;;;;;;;10.20;6.47;;;27.80;49.00;;;;;;5043841;28;20056;-54
2021/09/10 13:29:08;;;;;;;11.75;6.47;;;27.80;48.50;;;;;;5043348;28;20036;-55
2021/09/10 13:31:52;;;;;;;10.05;5.72;;;27.90;47.90;;;;;;5043424;28;20079;-55
2021/09/10 13:34:37;;;;;;;8.02;5.72;;;28.10;48.30;;;;;;5043549;28;20051;-54
2021/09/10 13:37:20;;;;;;;11.90;6.43;;;28.10;48.60;;;;;;5043330;28;20229;-55
2021/09/10 13:40:06;;;;;;;13.55;5.88;;;28.20;48.90;;;;;;5043460;28;20399;-55
2021/09/10 13:42:50;;;;;;;8.85;6.25;;;28.30;48.10;;;;;;5043436;28;20040;-55
2021/09/10 13:45:35;;;;;;;8.73;5.53;;;28.30;48.40;;;;;;5043158;28;20115;-54
2021/09/10 13:48:19;;;;;;;13.63;6.07;;;28.40;48.80;;;;;;5044240;28;20127;-55
2021/09/10 13:51:03;;;;;;;12.75;6.47;;;28.50;48.10;;;;;;5047763;28;20068;-54
2021/09/10 13:53:48;;;;;;;12.43;6.15;;;28.60;48.30;;;;;;5047646;28;20072;-54
2021/09/10 13:56:33;;;;;;;11.38;5.75;;;28.50;46.50;;;;;;5047953;28;20036;-55
2021/09/10 13:59:17;;;;;;;11.32;5.82;;;28.60;47.40;;;;;;5048135;28;20033;-54
2021/09/10 14:02:01;;;;;;;10.52;5.63;;;28.50;46.50;;;;;;5047347;28;20036;-55
2021/09/10 14:04:46;;;;;;;8.90;5.55;;;28.50;47.10;;;;;;5047758;28;20036;-55
2021/09/10 14:07:30;;;;;;;12.15;6.15;;;28.60;47.60;;;;;;5047334;28;20043;-55
2021/09/10 14:10:14;;;;;;;8.90;5.80;;;28.60;46.90;;;;;;5047430;28;20035;-55
2021/09/10 14:12:58;;;;;;;9.80;6.60;;;28.70;47.40;;;;;;5047107;28;20124;-54
2021/09/10 14:15:43;;;;;;;10.77;6.28;;;28.50;44.60;;;;;;5047101;28;20149;-54